Time,TemperatureF,DewpointF,PressureIn,WindDirection,WindDirectionDegrees,WindSpeedMPH,WindSpeedGustMPH,Humidity,HourlyPrecipIn,Conditions,Clouds,dailyrainin,SolarRadiationWatts/m^2,SoftwareType,DateUTC
2013-06-17 00:43:00,48.0,28.0,-100.00,East,99,0.0,0.0,46,0.00,,,0.00,0.000000,,2013-06-17 07:43:00,
2013-06-17 00:53:00,48.0,28.0,-100.00,East,99,0.0,0.0,46,0.00,,,0.00,0.000000,,2013-06-17 07:53:00,
2013-06-17 01:01:00,48.0,28.0,-100.00,East,99,0.0,0.0,46,0.00,,,0.00,0.000000,,2013-06-17 08:01:00,
2013-06-17 01:02:00,47.0,28.0,-100.00,East,92,0.0,6.0,48,0.00,,,0.00,0.000000,,2013-06-17 08:02:00,
2013-06-17 01:34:00,47.0,28.0,-100.00,East,92,0.0,6.0,48,0.00,,,0.00,0.000000,,2013-06-17 08:34:00,
2013-06-17 01:43:00,47.0,28.0,-100.00,East,92,0.0,6.0,48,0.00,,,0.00,0.000000,,2013-06-17 08:43:00,
2013-06-17 01:53:00,47.0,28.0,-100.00,East,92,0.0,6.0,48,0.00,,,0.00,0.000000,,2013-06-17 08:53:00,
2013-06-17 03:22:00,45.0,27.0,-100.00,ESE,121,0.0,0.0,48,-99.99,,,0.00,0.000000,,2013-06-17 10:22:00,
2013-06-17 05:23:00,42.0,21.0,-100.00,SE,124,0.0,0.0,42,-99.99,,,0.00,0.000000,,2013-06-17 12:23:00,
2013-06-17 07:44:00,44.0,22.0,-100.00,ENE,74,0.0,3.0,42,-99.99,,,0.00,22.000000,,2013-06-17 14:44:00,
2013-06-17 07:53:00,44.0,22.0,-100.00,ENE,74,0.0,3.0,42,-99.99,,,0.00,22.000000,,2013-06-17 14:53:00,
2013-06-17 08:02:00,55.0,29.0,-100.00,WSW,250,0.0,4.0,36,-99.99,,,0.00,111.000000,,2013-06-17 15:02:00,
2013-06-17 08:33:00,55.0,29.0,-100.00,WSW,250,0.0,4.0,36,-99.99,,,0.00,111.000000,,2013-06-17 15:33:00,
2013-06-17 08:43:00,55.0,29.0,-100.00,WSW,250,0.0,4.0,36,-99.99,,,0.00,111.000000,,2013-06-17 15:43:00,
2013-06-17 08:52:00,55.0,29.0,-100.00,WSW,250,0.0,4.0,36,-99.99,,,0.00,111.000000,,2013-06-17 15:52:00,
2013-06-17 09:02:00,69.0,34.0,-100.00,SW,234,0.0,0.0,27,0.00,,,0.00,595.000000,,2013-06-17 16:02:00,
2013-06-17 09:33:00,69.0,34.0,-100.00,SW,234,0.0,0.0,27,0.00,,,0.00,595.000000,,2013-06-17 16:33:00,
2013-06-17 09:43:00,69.0,34.0,-100.00,SW,234,0.0,0.0,27,0.00,,,0.00,595.000000,,2013-06-17 16:43:00,
2013-06-17 09:53:00,69.0,34.0,-100.00,SW,234,0.0,0.0,27,0.00,,,0.00,595.000000,,2013-06-17 16:53:00,
2013-06-17 10:22:00,74.0,25.0,-100.00,NNW,333,1.0,4.0,16,0.00,,,0.00,798.000000,,2013-06-17 17:22:00,
2013-06-17 10:33:00,74.0,25.0,-100.00,NNW,333,1.0,4.0,16,0.00,,,0.00,798.000000,,2013-06-17 17:33:00,
2013-06-17 10:43:00,74.0,25.0,-100.00,NNW,333,1.0,4.0,16,0.00,,,0.00,798.000000,,2013-06-17 17:43:00,
2013-06-17 10:52:00,74.0,25.0,-100.00,NNW,333,1.0,4.0,16,0.00,,,0.00,798.000000,,2013-06-17 17:52:00,
2013-06-17 11:02:00,76.0,29.0,-100.00,WNW,300,2.0,8.0,18,0.00,,,0.00,963.000000,,2013-06-17 18:02:00,
2013-06-17 11:23:00,76.0,29.0,-100.00,WNW,300,2.0,8.0,18,0.00,,,0.00,963.000000,,2013-06-17 18:23:00,
2013-06-17 11:33:00,76.0,29.0,-100.00,WNW,300,2.0,8.0,18,0.00,,,0.00,963.000000,,2013-06-17 18:33:00,
2013-06-17 11:43:00,76.0,29.0,-100.00,WNW,300,2.0,8.0,18,0.00,,,0.00,963.000000,,2013-06-17 18:43:00,
2013-06-17 11:53:00,76.0,29.0,-100.00,WNW,300,2.0,8.0,18,0.00,,,0.00,963.000000,,2013-06-17 18:53:00,
2013-06-17 12:22:00,77.0,32.0,-100.00,NNW,334,4.0,8.0,19,0.00,,,0.00,992.000000,,2013-06-17 19:22:00,
2013-06-17 12:33:00,77.0,32.0,-100.00,NNW,334,4.0,8.0,19,0.00,,,0.00,992.000000,,2013-06-17 19:33:00,
2013-06-17 12:43:00,77.0,32.0,-100.00,NNW,334,4.0,8.0,19,0.00,,,0.00,992.000000,,2013-06-17 19:43:00,
2013-06-17 12:53:00,77.0,32.0,-100.00,NNW,334,4.0,8.0,19,0.00,,,0.00,992.000000,,2013-06-17 19:53:00,
2013-06-17 13:01:00,77.0,32.0,-100.00,NNW,334,4.0,8.0,19,0.00,,,0.00,992.000000,,2013-06-17 20:01:00,
2013-06-17 13:34:00,76.0,31.0,-100.00,NW,323,4.0,12.0,19,0.00,,,0.00,1128.000000,,2013-06-17 20:34:00,
2013-06-17 13:43:00,76.0,31.0,-100.00,NW,323,4.0,12.0,19,0.00,,,0.00,1128.000000,,2013-06-17 20:43:00,
2013-06-17 13:52:00,76.0,31.0,-100.00,NW,323,4.0,12.0,19,0.00,,,0.00,1128.000000,,2013-06-17 20:52:00,
2013-06-17 14:01:00,76.0,31.0,-100.00,NW,323,4.0,12.0,19,0.00,,,0.00,1128.000000,,2013-06-17 21:01:00,
2013-06-17 15:02:00,74.0,29.0,-100.00,NW,317,6.0,16.0,19,0.00,,,0.00,1068.000000,,2013-06-17 22:02:00,
2013-06-17 15:53:00,74.0,29.0,-100.00,NW,317,6.0,16.0,19,0.00,,,0.00,1068.000000,,2013-06-17 22:53:00,
2013-06-17 16:33:00,76.0,29.0,-100.00,West,265,3.0,14.0,18,0.00,,,-99.99,961.000000,,2013-06-17 23:33:00,
2013-06-17 16:43:00,76.0,29.0,-100.00,West,265,3.0,14.0,18,0.00,,,-99.99,961.000000,,2013-06-17 23:43:00,
2013-06-17 16:53:00,76.0,29.0,-100.00,West,265,3.0,14.0,18,0.00,,,-99.99,961.000000,,2013-06-17 23:53:00,
2013-06-17 17:01:00,76.0,29.0,-100.00,West,265,3.0,14.0,18,0.00,,,-99.99,961.000000,,2013-06-18 00:01:00,
2013-06-17 17:33:00,73.0,28.0,-100.00,NW,317,3.0,12.0,19,0.00,,,0.00,794.000000,,2013-06-18 00:33:00,
2013-06-17 17:43:00,73.0,28.0,-100.00,NW,317,3.0,12.0,19,0.00,,,0.00,794.000000,,2013-06-18 00:43:00,
2013-06-17 17:52:00,73.0,28.0,-100.00,NW,317,3.0,12.0,19,0.00,,,0.00,794.000000,,2013-06-18 00:52:00,
2013-06-17 18:01:00,73.0,28.0,-100.00,NW,317,3.0,12.0,19,0.00,,,0.00,794.000000,,2013-06-18 01:01:00,
2013-06-17 18:02:00,70.0,30.0,-100.00,NW,325,3.0,13.0,23,0.00,,,0.00,544.000000,,2013-06-18 01:02:00,
2013-06-17 18:23:00,70.0,30.0,-100.00,NW,325,3.0,13.0,23,0.00,,,0.00,544.000000,,2013-06-18 01:23:00,
2013-06-17 18:34:00,70.0,30.0,-100.00,NW,325,3.0,13.0,23,0.00,,,0.00,544.000000,,2013-06-18 01:34:00,
2013-06-17 18:44:00,70.0,30.0,-100.00,NW,325,3.0,13.0,23,0.00,,,0.00,544.000000,,2013-06-18 01:44:00,
2013-06-17 18:53:00,70.0,30.0,-100.00,NW,325,3.0,13.0,23,0.00,,,0.00,544.000000,,2013-06-18 01:53:00,
2013-06-17 19:02:00,67.0,33.0,-100.00,NW,305,3.0,12.0,28,0.00,,,0.00,90.000000,,2013-06-18 02:02:00,
2013-06-17 19:23:00,67.0,33.0,-100.00,NW,305,3.0,12.0,28,0.00,,,0.00,90.000000,,2013-06-18 02:23:00,
2013-06-17 19:34:00,67.0,33.0,-100.00,NW,305,3.0,12.0,28,0.00,,,0.00,90.000000,,2013-06-18 02:34:00,
2013-06-17 19:43:00,67.0,33.0,-100.00,NW,305,3.0,12.0,28,0.00,,,0.00,90.000000,,2013-06-18 02:43:00,
2013-06-17 19:53:00,67.0,33.0,-100.00,NW,305,3.0,12.0,28,0.00,,,0.00,90.000000,,2013-06-18 02:53:00,
2013-06-17 20:23:00,62.0,33.0,-100.00,NW,319,0.0,10.0,33,0.00,,,0.00,71.000000,,2013-06-18 03:23:00,
2013-06-17 20:34:00,62.0,33.0,-100.00,NW,319,0.0,10.0,33,0.00,,,0.00,71.000000,,2013-06-18 03:34:00,
2013-06-17 20:43:00,62.0,33.0,-100.00,NW,319,0.0,10.0,33,0.00,,,0.00,71.000000,,2013-06-18 03:43:00,
2013-06-17 20:53:00,62.0,33.0,-100.00,NW,319,0.0,10.0,33,0.00,,,0.00,71.000000,,2013-06-18 03:53:00,
2013-06-17 21:01:00,62.0,33.0,-100.00,NW,319,0.0,10.0,33,0.00,,,0.00,71.000000,,2013-06-18 04:01:00,
2013-06-17 21:02:00,56.0,33.0,-100.00,ENE,77,0.0,6.0,42,0.00,,,0.00,6.000000,,2013-06-18 04:02:00,
2013-06-17 21:34:00,56.0,33.0,-100.00,ENE,77,0.0,6.0,42,0.00,,,0.00,6.000000,,2013-06-18 04:34:00,
2013-06-17 21:43:00,56.0,33.0,-100.00,ENE,77,0.0,6.0,42,0.00,,,0.00,6.000000,,2013-06-18 04:43:00,
2013-06-17 21:53:00,56.0,33.0,-100.00,ENE,77,0.0,6.0,42,0.00,,,0.00,6.000000,,2013-06-18 04:53:00,
2013-06-17 22:02:00,52.0,33.0,-100.00,East,87,0.0,0.0,49,0.00,,,0.00,0.000000,,2013-06-18 05:02:00,
2013-06-17 22:22:00,52.0,33.0,-100.00,East,87,0.0,0.0,49,0.00,,,0.00,0.000000,,2013-06-18 05:22:00,
2013-06-17 22:34:00,52.0,33.0,-100.00,East,87,0.0,0.0,49,0.00,,,0.00,0.000000,,2013-06-18 05:34:00,
2013-06-17 22:43:00,52.0,33.0,-100.00,East,87,0.0,0.0,49,0.00,,,0.00,0.000000,,2013-06-18 05:43:00,
2013-06-17 22:53:00,52.0,33.0,-100.00,East,87,0.0,0.0,49,0.00,,,0.00,0.000000,,2013-06-18 05:53:00,
2013-06-17 23:02:00,48.0,31.0,-100.00,East,91,0.0,4.0,52,0.00,,,0.00,0.000000,,2013-06-18 06:02:00,